Terminal Aerodrome Forecast
Issued by NWS Jackson, KY

Home | Current Version | Previous Version | Text Only | Print | Product List | Glossary On
Versions: 1 2 3 4 5 6 7 8 9 10 11 12 13 14
000
FTUS43 KJKL 041120
TAFLOZ
TAF
KLOZ 041120Z 0412/0512 VRB02KT 6SM BR FEW002
     FM041300 VRB06KT P6SM SCT050
     FM041700 29007KT P6SM VCTS BKN050CB
     FM042300 VRB06KT P6SM SCT250
     FM050700 00000KT 3SM BR SKC=

USA.gov is the U.S. government's official web portal to all federal, state and local government web resources and services.